Shin Chun — VRFD2 — position and weather

sailwx.info

Track history (hours):
 
Tides and Currents Weather Stations Pressure Air Temp Water Temp Dewpoint Dewpoint Depression Visibility Wind Speed Wind Dir Waves Ship Positions

Shin Chun

Last reported at 2014-Jul-23 13:33 UTC. Time now 2014-Jul-23 20:13 UTC.
Position N 22°51' E 119°57'.

Length 152 m; draft 7.5 m.

Type: Cargo ship. MMSI: 477218300.

Date/timePositionNaut miles runAvg speedWind from/ knotsBaromVisibWave heightAir tempDewpointWater temp
2014-Jul-23 13:33N 22°51' E 119°57'1111.2
2014-Jul-23 12:33N 22°41' E 120°03'1211.9
2014-Jul-23 11:33N 22°37' E 120°15'4 3.7
2014-Jul-23 10:29N 22°35' E 120°18'0 0.0
2014-Jul-23 09:29N 22°35' E 120°18'0 0.0
2014-Jul-23 08:29N 22°35' E 120°18'0 0.0
2014-Jul-23 07:28N 22°35' E 120°18'0 0.0
2014-Jul-23 06:28N 22°35' E 120°18'0 0.0
2014-Jul-23 05:31N 22°35' E 120°18'0 0.0
2014-Jul-23 04:31N 22°35' E 120°18'0 0.0
2014-Jul-23 03:22N 22°35' E 120°18'0 0.0
2014-Jul-23 02:31N 22°35' E 120°18'0 0.0
2014-Jul-23 01:31N 22°35' E 120°18'0 0.0
2014-Jul-23 00:19N 22°35' E 120°18'0 0.0
2014-Jul-22 23:13N 22°35' E 120°18'0 0.0
2014-Jul-22 22:28N 22°35' E 120°18'0 0.0
2014-Jul-22 20:19N 22°35' E 120°18'0 0.0
2014-Jul-22 19:28N 22°35' E 120°18'0 0.0
2014-Jul-22 18:22N 22°35' E 120°18'0 0.0
2014-Jul-22 17:28N 22°35' E 120°18'0 0.0
2014-Jul-22 16:28N 22°35' E 120°18'0 0.0
2014-Jul-22 15:28N 22°35' E 120°18'0 0.0
2014-Jul-22 14:33N 22°35' E 120°18'3 2.9
2014-Jul-22 13:33N 22°37' E 120°16'1111.3
2014-Jul-22 12:33N 22°42' E 120°05'1515.4
2014-Jul-22 11:33N 22°50' E 119°51'1515.0
2014-Jul-22 10:33N 22°59' E 119°38'10113.9
2014-Jul-22 03:20N 24°10' E 118°20'1215.0
2014-Jul-22 02:33N 24°19' E 118°12'1212.3
2014-Jul-22 01:33N 24°28' E 118°03'3 3.0
2014-Jul-22 00:32N 24°31' E 118°05'0 0.0
2014-Jul-21 23:32N 24°31' E 118°05'0 0.0
2014-Jul-21 22:26N 24°31' E 118°05'0 0.0
2014-Jul-21 21:32N 24°31' E 118°05'0 0.0
2014-Jul-21 20:32N 24°31' E 118°05'0 0.0
2014-Jul-21 20:17N 24°31' E 118°05'0 0.0
2014-Jul-21 19:26N 24°31' E 118°05'0 0.0
2014-Jul-21 18:08N 24°31' E 118°05'0 0.0
2014-Jul-21 17:32N 24°31' E 118°05'0 0.1
2014-Jul-21 16:32N 24°31' E 118°05'0 0.1
2014-Jul-21 15:32N 24°31' E 118°05'0 0.0
2014-Jul-21 14:29N 24°31' E 118°05'0 0.0
2014-Jul-21 13:32N 24°31' E 118°05'0 0.0
2014-Jul-21 12:32N 24°31' E 118°05'0 0.0
2014-Jul-21 11:32N 24°31' E 118°05'0 0.0
2014-Jul-21 10:29N 24°31' E 118°05'0 0.0
2014-Jul-21 09:32N 24°31' E 118°05'3 3.1
2014-Jul-21 08:33N 24°28' E 118°04'1212.3
2014-Jul-21 07:33N 24°19' E 118°12'1414.1
2014-Jul-21 06:33N 24°08' E 118°23'1513.4
2014-Jul-21 05:27N 23°58' E 118°34'10412.6
2014-Jul-20 21:11N 22°47' E 119°57'813.2
2014-Jul-20 20:33N 22°42' E 120°05'1212.2
2014-Jul-20 19:33N 22°37' E 120°17'3 2.2
2014-Jul-20 18:19N 22°35' E 120°18'0 0.0
2014-Jul-20 17:31N 22°35' E 120°18'0 0.0
2014-Jul-20 16:31N 22°35' E 120°18'0 0.0
2014-Jul-20 15:31N 22°35' E 120°18'0 0.0
2014-Jul-20 14:31N 22°35' E 120°18'0 0.0
2014-Jul-20 13:31N 22°35' E 120°18'0 0.1
2014-Jul-20 12:32N 22°35' E 120°18'6 6.5
2014-Jul-20 11:33N 22°39' E 120°13'0 0.4
2014-Jul-20 10:31N 22°39' E 120°13'0 0.0
2014-Jul-20 09:31N 22°39' E 120°13'0 0.1
2014-Jul-20 08:31N 22°39' E 120°13'0 0.0
2014-Jul-20 07:31N 22°39' E 120°13'0 0.0
2014-Jul-20 06:31N 22°39' E 120°13'0 0.0
2014-Jul-20 05:25N 22°39' E 120°13'0 0.0
2014-Jul-20 04:25N 22°39' E 120°13'0 0.0
2014-Jul-20 03:25N 22°39' E 120°13'0 0.0
2014-Jul-20 02:30N 22°39' E 120°13'0 0.1
2014-Jul-20 01:30N 22°39' E 120°13'8 8.9
2014-Jul-20 00:33N 22°45' E 120°06'19912.3
2014-Jul-19 08:26N 26°03' E 119°50'1410.9
2014-Jul-19 07:10N 26°08' E 119°35'610.3
2014-Jul-19 06:33N 26°03' E 119°31'3 3.4
2014-Jul-19 05:33N 26°00' E 119°29'0 0.0
2014-Jul-19 04:33N 26°00' E 119°29'0 0.0
2014-Jul-19 03:32N 26°00' E 119°29'0 0.0
2014-Jul-19 02:33N 26°00' E 119°29'0 0.0
2014-Jul-19 01:33N 26°00' E 119°29'0 0.0
2014-Jul-19 00:33N 26°00' E 119°29'0 0.0
2014-Jul-18 23:33N 26°00' E 119°29'0 0.0
2014-Jul-18 22:33N 26°00' E 119°29'0 0.0
2014-Jul-18 21:33N 26°00' E 119°29'0 0.0
2014-Jul-18 20:33N 26°00' E 119°29'0 0.0
2014-Jul-18 19:33N 26°00' E 119°29'0 0.0
2014-Jul-18 18:33N 26°00' E 119°29'0 0.0
2014-Jul-18 17:33N 26°00' E 119°29'0 0.0
2014-Jul-18 16:33N 26°00' E 119°29'0 0.0
2014-Jul-18 15:33N 26°00' E 119°29'0 0.0
2014-Jul-18 14:33N 26°00' E 119°29'0 0.0
2014-Jul-18 13:33N 26°00' E 119°29'0 0.0
2014-Jul-18 12:32N 26°00' E 119°29'0 0.0
2014-Jul-18 11:33N 26°00' E 119°29'0 0.0
2014-Jul-18 10:33N 26°00' E 119°29'0 0.0
2014-Jul-18 09:33N 26°00' E 119°29'0 0.0
2014-Jul-18 08:33N 26°00' E 119°29'5 5.1
2014-Jul-18 07:33N 26°05' E 119°32'1110.5
2014-Jul-18 06:30N 26°05' E 119°44'50 1.3
2014-Jul-16 16:29N 25°16' E 119°41'1010.9
2014-Jul-16 15:33N 25°19' E 119°31'1211.8
2014-Jul-16 14:33N 25°23' E 119°19'2 2.0
2014-Jul-16 13:32N 25°25' E 119°17'0 0.0
2014-Jul-16 12:32N 25°25' E 119°17'0 0.0
2014-Jul-16 11:32N 25°25' E 119°17'0 0.0
2014-Jul-16 10:32N 25°25' E 119°17'0 0.0
2014-Jul-16 09:32N 25°25' E 119°17'0 0.0
2014-Jul-16 08:32N 25°25' E 119°17'0 0.0
2014-Jul-16 07:32N 25°25' E 119°17'7 7.3
2014-Jul-16 06:33N 25°21' E 119°24'1212.1
2014-Jul-16 05:33N 25°17' E 119°37'6 6.3
2014-Jul-16 04:32N 25°14' E 119°43'1210.8
2014-Jul-16 03:28N 25°04' E 119°50'61 4.7
2014-Jul-15 14:25N 24°16' E 120°31'8 9.8
2014-Jul-15 13:33N 24°14' E 120°22'1815.5
2014-Jul-15 12:25N 24°00' E 120°10'1414.9
2014-Jul-15 11:30N 23°48' E 120°02'1514.0
2014-Jul-15 10:25N 23°35' E 119°56'1213.2
2014-Jul-15 09:31N 23°23' E 119°55'3411.4
2014-Jul-15 06:31N 22°49' E 120°03'1212.5
2014-Jul-15 05:32N 22°39' E 120°11'8 7.7
2014-Jul-15 04:31N 22°35' E 120°18'0 0.0
2014-Jul-15 03:25N 22°35' E 120°18'0 0.0
2014-Jul-15 02:31N 22°35' E 120°18'0 0.0
2014-Jul-15 01:25N 22°35' E 120°18'0 0.0
2014-Jul-15 00:31N 22°35' E 120°18'0 0.0
2014-Jul-14 23:30N 22°35' E 120°18'0 0.0
2014-Jul-14 22:24N 22°35' E 120°18'0 0.0
2014-Jul-14 21:31N 22°35' E 120°18'0 0.0
2014-Jul-14 20:33N 22°35' E 120°18'2 2.0
2014-Jul-14 19:33N 22°36' E 120°17'1110.8
2014-Jul-14 18:33N 22°41' E 120°06'1515.1
2014-Jul-14 17:34N 22°49' E 119°53'1514.8
2014-Jul-14 16:32N 22°57' E 119°39'1413.7
2014-Jul-14 15:33N 23°06' E 119°28'1210.9
2014-Jul-14 14:25N 23°15' E 119°18'6212.7
2014-Jul-14 09:31N 24°00' E 118°32'1414.4
2014-Jul-14 08:33N 24°10' E 118°21'1514.9
2014-Jul-14 07:33N 24°21' E 118°10'1110.9
2014-Jul-14 06:33N 24°30' E 118°04'1 0.7
2014-Jul-14 05:28N 24°31' E 118°05'0 0.0
2014-Jul-14 04:28N 24°31' E 118°05'0 0.0
2014-Jul-14 03:22N 24°31' E 118°05'0 0.0
2014-Jul-14 02:31N 24°31' E 118°05'0 0.0
2014-Jul-14 01:28N 24°31' E 118°05'0 0.0
2014-Jul-14 00:25N 24°31' E 118°05'0 0.0
2014-Jul-13 23:28N 24°31' E 118°05'0 0.0
2014-Jul-13 22:28N 24°31' E 118°05'0 0.0
2014-Jul-13 21:31N 24°31' E 118°05'0 0.0
2014-Jul-13 20:28N 24°31' E 118°05'0 0.0
2014-Jul-13 19:31N 24°31' E 118°05'0 0.0
2014-Jul-13 18:31N 24°31' E 118°05'0 0.0
2014-Jul-13 17:28N 24°31' E 118°05'0 0.0
2014-Jul-13 16:31N 24°31' E 118°05'0 0.0
2014-Jul-13 15:33N 24°31' E 118°05'0 0.0
2014-Jul-13 14:33N 24°31' E 118°05'6 5.9
2014-Jul-13 13:33N 24°25' E 118°05'  
Track history (hours):
 
Tides and Currents Weather Stations Pressure Air Temp Water Temp Dewpoint Dewpoint Depression Visibility Wind Speed Wind Dir Waves Ship Positions

Shin Chun

Last reported at 2014-Jul-23 13:33 UTC. Time now 2014-Jul-23 20:13 UTC.
Position N 22°51' E 119°57'.

Length 152 m; draft 7.5 m.

Type: Cargo ship. MMSI: 477218300.

Date/timePositionNaut miles runAvg speedWind from/ knotsBaromVisibWave heightAir tempDewpointWater temp
2014-Jul-23 13:33N 22°51' E 119°57'1111.2
2014-Jul-23 12:33N 22°41' E 120°03'1211.9
2014-Jul-23 11:33N 22°37' E 120°15'4 3.7
2014-Jul-23 10:29N 22°35' E 120°18'0 0.0
2014-Jul-23 09:29N 22°35' E 120°18'0 0.0
2014-Jul-23 08:29N 22°35' E 120°18'0 0.0
2014-Jul-23 07:28N 22°35' E 120°18'0 0.0
2014-Jul-23 06:28N 22°35' E 120°18'0 0.0
2014-Jul-23 05:31N 22°35' E 120°18'0 0.0
2014-Jul-23 04:31N 22°35' E 120°18'0 0.0
2014-Jul-23 03:22N 22°35' E 120°18'0 0.0
2014-Jul-23 02:31N 22°35' E 120°18'0 0.0
2014-Jul-23 01:31N 22°35' E 120°18'0 0.0
2014-Jul-23 00:19N 22°35' E 120°18'0 0.0
2014-Jul-22 23:13N 22°35' E 120°18'0 0.0
2014-Jul-22 22:28N 22°35' E 120°18'0 0.0
2014-Jul-22 20:19N 22°35' E 120°18'0 0.0
2014-Jul-22 19:28N 22°35' E 120°18'0 0.0
2014-Jul-22 18:22N 22°35' E 120°18'0 0.0
2014-Jul-22 17:28N 22°35' E 120°18'0 0.0
2014-Jul-22 16:28N 22°35' E 120°18'0 0.0
2014-Jul-22 15:28N 22°35' E 120°18'0 0.0
2014-Jul-22 14:33N 22°35' E 120°18'3 2.9
2014-Jul-22 13:33N 22°37' E 120°16'1111.3
2014-Jul-22 12:33N 22°42' E 120°05'1515.4
2014-Jul-22 11:33N 22°50' E 119°51'1515.0
2014-Jul-22 10:33N 22°59' E 119°38'10113.9
2014-Jul-22 03:20N 24°10' E 118°20'1215.0
2014-Jul-22 02:33N 24°19' E 118°12'1212.3
2014-Jul-22 01:33N 24°28' E 118°03'3 3.0
2014-Jul-22 00:32N 24°31' E 118°05'0 0.0
2014-Jul-21 23:32N 24°31' E 118°05'0 0.0
2014-Jul-21 22:26N 24°31' E 118°05'0 0.0
2014-Jul-21 21:32N 24°31' E 118°05'0 0.0
2014-Jul-21 20:32N 24°31' E 118°05'0 0.0
2014-Jul-21 20:17N 24°31' E 118°05'0 0.0
2014-Jul-21 19:26N 24°31' E 118°05'0 0.0
2014-Jul-21 18:08N 24°31' E 118°05'0 0.0
2014-Jul-21 17:32N 24°31' E 118°05'0 0.1
2014-Jul-21 16:32N 24°31' E 118°05'0 0.1
2014-Jul-21 15:32N 24°31' E 118°05'0 0.0
2014-Jul-21 14:29N 24°31' E 118°05'0 0.0
2014-Jul-21 13:32N 24°31' E 118°05'0 0.0
2014-Jul-21 12:32N 24°31' E 118°05'0 0.0
2014-Jul-21 11:32N 24°31' E 118°05'0 0.0
2014-Jul-21 10:29N 24°31' E 118°05'0 0.0
2014-Jul-21 09:32N 24°31' E 118°05'3 3.1
2014-Jul-21 08:33N 24°28' E 118°04'1212.3
2014-Jul-21 07:33N 24°19' E 118°12'1414.1
2014-Jul-21 06:33N 24°08' E 118°23'1513.4
2014-Jul-21 05:27N 23°58' E 118°34'10412.6
2014-Jul-20 21:11N 22°47' E 119°57'813.2
2014-Jul-20 20:33N 22°42' E 120°05'1212.2
2014-Jul-20 19:33N 22°37' E 120°17'3 2.2
2014-Jul-20 18:19N 22°35' E 120°18'0 0.0
2014-Jul-20 17:31N 22°35' E 120°18'0 0.0
2014-Jul-20 16:31N 22°35' E 120°18'0 0.0
2014-Jul-20 15:31N 22°35' E 120°18'0 0.0
2014-Jul-20 14:31N 22°35' E 120°18'0 0.0
2014-Jul-20 13:31N 22°35' E 120°18'0 0.1
2014-Jul-20 12:32N 22°35' E 120°18'6 6.5
2014-Jul-20 11:33N 22°39' E 120°13'0 0.4
2014-Jul-20 10:31N 22°39' E 120°13'0 0.0
2014-Jul-20 09:31N 22°39' E 120°13'0 0.1
2014-Jul-20 08:31N 22°39' E 120°13'0 0.0
2014-Jul-20 07:31N 22°39' E 120°13'0 0.0
2014-Jul-20 06:31N 22°39' E 120°13'0 0.0
2014-Jul-20 05:25N 22°39' E 120°13'0 0.0
2014-Jul-20 04:25N 22°39' E 120°13'0 0.0
2014-Jul-20 03:25N 22°39' E 120°13'0 0.0
2014-Jul-20 02:30N 22°39' E 120°13'0 0.1
2014-Jul-20 01:30N 22°39' E 120°13'8 8.9
2014-Jul-20 00:33N 22°45' E 120°06'19912.3
2014-Jul-19 08:26N 26°03' E 119°50'1410.9
2014-Jul-19 07:10N 26°08' E 119°35'610.3
2014-Jul-19 06:33N 26°03' E 119°31'3 3.4
2014-Jul-19 05:33N 26°00' E 119°29'0 0.0
2014-Jul-19 04:33N 26°00' E 119°29'0 0.0
2014-Jul-19 03:32N 26°00' E 119°29'0 0.0
2014-Jul-19 02:33N 26°00' E 119°29'0 0.0
2014-Jul-19 01:33N 26°00' E 119°29'0 0.0
2014-Jul-19 00:33N 26°00' E 119°29'0 0.0
2014-Jul-18 23:33N 26°00' E 119°29'0 0.0
2014-Jul-18 22:33N 26°00' E 119°29'0 0.0
2014-Jul-18 21:33N 26°00' E 119°29'0 0.0
2014-Jul-18 20:33N 26°00' E 119°29'0 0.0
2014-Jul-18 19:33N 26°00' E 119°29'0 0.0
2014-Jul-18 18:33N 26°00' E 119°29'0 0.0
2014-Jul-18 17:33N 26°00' E 119°29'0 0.0
2014-Jul-18 16:33N 26°00' E 119°29'0 0.0
2014-Jul-18 15:33N 26°00' E 119°29'0 0.0
2014-Jul-18 14:33N 26°00' E 119°29'0 0.0
2014-Jul-18 13:33N 26°00' E 119°29'0 0.0
2014-Jul-18 12:32N 26°00' E 119°29'0 0.0
2014-Jul-18 11:33N 26°00' E 119°29'0 0.0
2014-Jul-18 10:33N 26°00' E 119°29'0 0.0
2014-Jul-18 09:33N 26°00' E 119°29'0 0.0
2014-Jul-18 08:33N 26°00' E 119°29'5 5.1
2014-Jul-18 07:33N 26°05' E 119°32'1110.5
2014-Jul-18 06:30N 26°05' E 119°44'50 1.3
2014-Jul-16 16:29N 25°16' E 119°41'1010.9
2014-Jul-16 15:33N 25°19' E 119°31'1211.8
2014-Jul-16 14:33N 25°23' E 119°19'2 2.0
2014-Jul-16 13:32N 25°25' E 119°17'0 0.0
2014-Jul-16 12:32N 25°25' E 119°17'0 0.0
2014-Jul-16 11:32N 25°25' E 119°17'0 0.0
2014-Jul-16 10:32N 25°25' E 119°17'0 0.0
2014-Jul-16 09:32N 25°25' E 119°17'0 0.0
2014-Jul-16 08:32N 25°25' E 119°17'0 0.0
2014-Jul-16 07:32N 25°25' E 119°17'7 7.3
2014-Jul-16 06:33N 25°21' E 119°24'1212.1
2014-Jul-16 05:33N 25°17' E 119°37'6 6.3
2014-Jul-16 04:32N 25°14' E 119°43'1210.8
2014-Jul-16 03:28N 25°04' E 119°50'61 4.7
2014-Jul-15 14:25N 24°16' E 120°31'8 9.8
2014-Jul-15 13:33N 24°14' E 120°22'1815.5
2014-Jul-15 12:25N 24°00' E 120°10'1414.9
2014-Jul-15 11:30N 23°48' E 120°02'1514.0
2014-Jul-15 10:25N 23°35' E 119°56'1213.2
2014-Jul-15 09:31N 23°23' E 119°55'3411.4
2014-Jul-15 06:31N 22°49' E 120°03'1212.5
2014-Jul-15 05:32N 22°39' E 120°11'8 7.7
2014-Jul-15 04:31N 22°35' E 120°18'0 0.0
2014-Jul-15 03:25N 22°35' E 120°18'0 0.0
2014-Jul-15 02:31N 22°35' E 120°18'0 0.0
2014-Jul-15 01:25N 22°35' E 120°18'0 0.0
2014-Jul-15 00:31N 22°35' E 120°18'0 0.0
2014-Jul-14 23:30N 22°35' E 120°18'0 0.0
2014-Jul-14 22:24N 22°35' E 120°18'0 0.0
2014-Jul-14 21:31N 22°35' E 120°18'0 0.0
2014-Jul-14 20:33N 22°35' E 120°18'2 2.0
2014-Jul-14 19:33N 22°36' E 120°17'1110.8
2014-Jul-14 18:33N 22°41' E 120°06'1515.1
2014-Jul-14 17:34N 22°49' E 119°53'1514.8
2014-Jul-14 16:32N 22°57' E 119°39'1413.7
2014-Jul-14 15:33N 23°06' E 119°28'1210.9
2014-Jul-14 14:25N 23°15' E 119°18'6212.7
2014-Jul-14 09:31N 24°00' E 118°32'1414.4
2014-Jul-14 08:33N 24°10' E 118°21'1514.9
2014-Jul-14 07:33N 24°21' E 118°10'1110.9
2014-Jul-14 06:33N 24°30' E 118°04'1 0.7
2014-Jul-14 05:28N 24°31' E 118°05'0 0.0
2014-Jul-14 04:28N 24°31' E 118°05'0 0.0
2014-Jul-14 03:22N 24°31' E 118°05'0 0.0
2014-Jul-14 02:31N 24°31' E 118°05'0 0.0
2014-Jul-14 01:28N 24°31' E 118°05'0 0.0
2014-Jul-14 00:25N 24°31' E 118°05'0 0.0
2014-Jul-13 23:28N 24°31' E 118°05'0 0.0
2014-Jul-13 22:28N 24°31' E 118°05'0 0.0
2014-Jul-13 21:31N 24°31' E 118°05'0 0.0
2014-Jul-13 20:28N 24°31' E 118°05'0 0.0
2014-Jul-13 19:31N 24°31' E 118°05'0 0.0
2014-Jul-13 18:31N 24°31' E 118°05'0 0.0
2014-Jul-13 17:28N 24°31' E 118°05'0 0.0
2014-Jul-13 16:31N 24°31' E 118°05'0 0.0
2014-Jul-13 15:33N 24°31' E 118°05'0 0.0
2014-Jul-13 14:33N 24°31' E 118°05'6 5.9
2014-Jul-13 13:33N 24°25' E 118°05'  

Dump ship's entire track history